createdAt,value
2022-09-03T00:02:32.075Z,1.87
2022-09-03T00:05:19.113Z,2.17
2022-09-03T00:08:02.739Z,2.30
2022-09-03T00:10:52.363Z,2.53
2022-09-03T00:13:32.894Z,2.33
2022-09-03T00:16:00.752Z,2.77
2022-09-03T00:18:31.982Z,2.37
2022-09-03T00:21:08.600Z,2.27
2022-09-03T00:23:38.910Z,2.10
2022-09-03T00:26:11.492Z,2.07
2022-09-03T00:29:03.754Z,2.40
2022-09-03T00:31:34.194Z,2.30
2022-09-03T00:34:12.173Z,2.90
2022-09-03T00:36:44.779Z,2.30
2022-09-03T00:39:13.521Z,2.67
2022-09-03T00:42:08.152Z,2.60
2022-09-03T00:44:55.679Z,2.63
2022-09-03T00:47:25.589Z,2.87
2022-09-03T00:50:05.467Z,2.07
2022-09-03T00:52:58.302Z,2.60
2022-09-03T00:55:57.096Z,2.30
2022-09-03T00:58:35.879Z,1.80
2022-09-03T01:01:08.497Z,2.27
2022-09-03T01:03:54.521Z,2.57
2022-09-03T01:06:31.982Z,2.80
2022-09-03T01:09:39.732Z,2.57
2022-09-03T01:12:13.628Z,2.13
2022-09-03T01:15:38.161Z,2.80
2022-09-03T01:18:17.840Z,1.93
2022-09-03T01:20:59.314Z,2.37
2022-09-03T01:23:41.261Z,2.30
2022-09-03T01:26:17.281Z,2.87
2022-09-03T01:29:22.178Z,1.83
2022-09-03T01:31:51.382Z,2.60
2022-09-03T01:34:25.300Z,2.40
2022-09-03T01:37:16.064Z,2.50
2022-09-03T01:39:55.292Z,3.20
2022-09-03T01:42:43.241Z,2.17
2022-09-03T01:45:29.186Z,2.20
2022-09-03T01:48:07.842Z,2.37
2022-09-03T01:51:03.912Z,2.20
2022-09-03T01:54:10.802Z,2.50
2022-09-03T01:57:03.283Z,1.80
2022-09-03T01:59:40.417Z,2.10
2022-09-03T02:02:23.425Z,2.50
2022-09-03T02:05:09.072Z,2.30
2022-09-03T02:07:42.000Z,2.60
2022-09-03T02:10:13.843Z,2.33
2022-09-03T02:12:43.280Z,2.70
2022-09-03T02:15:15.950Z,3.00
2022-09-03T02:17:44.552Z,2.53
2022-09-03T02:20:16.555Z,2.07
2022-09-03T02:22:43.694Z,3.20
2022-09-03T02:25:11.165Z,3.23
2022-09-03T02:27:39.097Z,2.80
2022-09-03T02:30:06.879Z,2.23
2022-09-03T02:32:33.622Z,2.57
2022-09-03T02:35:00.525Z,1.93
2022-09-03T02:37:27.527Z,2.43
2022-09-03T02:39:54.657Z,2.30
2022-09-03T02:42:21.982Z,2.27
2022-09-03T02:44:54.176Z,3.03
2022-09-03T02:47:21.231Z,2.40
2022-09-03T02:49:48.838Z,2.40
2022-09-03T02:52:16.055Z,2.30
2022-09-03T02:54:45.208Z,2.20
2022-09-03T02:57:15.151Z,2.33
2022-09-03T02:59:44.279Z,3.03
2022-09-03T03:02:12.212Z,2.77
2022-09-03T03:04:39.583Z,3.00
2022-09-03T03:07:07.349Z,2.60
2022-09-03T03:09:34.047Z,2.30
2022-09-03T03:12:01.148Z,2.67
2022-09-03T03:14:27.925Z,2.90
2022-09-03T03:16:54.817Z,2.30
2022-09-03T03:19:21.602Z,2.50
2022-09-03T03:21:48.363Z,2.70
2022-09-03T03:24:15.234Z,3.20
2022-09-03T03:26:42.245Z,2.70
2022-09-03T03:29:16.082Z,2.90
2022-09-03T03:31:43.257Z,2.50
2022-09-03T03:34:10.102Z,2.87
2022-09-03T03:36:36.941Z,2.50
2022-09-03T03:39:03.727Z,2.60
2022-09-03T03:41:33.052Z,2.90
2022-09-03T03:44:05.487Z,2.47
2022-09-03T03:46:35.442Z,2.33
2022-09-03T03:49:02.985Z,3.40
2022-09-03T03:51:30.722Z,2.20
2022-09-03T03:54:02.024Z,2.90
2022-09-03T03:56:31.310Z,2.83
2022-09-03T03:58:59.581Z,2.80
2022-09-03T04:01:27.505Z,2.17
2022-09-03T04:03:58.665Z,2.53
2022-09-03T04:06:25.601Z,2.13
2022-09-03T04:08:52.350Z,3.20
2022-09-03T04:11:21.582Z,2.70
2022-09-03T04:13:49.670Z,3.00
2022-09-03T04:16:19.427Z,2.90
2022-09-03T04:18:47.485Z,2.10
2022-09-03T04:21:16.193Z,3.00
2022-09-03T04:23:45.247Z,2.30
2022-09-03T04:26:14.176Z,2.90
2022-09-03T04:28:42.141Z,2.33
2022-09-03T04:31:10.707Z,2.90
2022-09-03T04:33:39.493Z,2.70
2022-09-03T04:36:09.438Z,2.57
2022-09-03T04:38:38.967Z,2.63
2022-09-03T04:41:07.506Z,2.97
2022-09-03T04:43:34.374Z,3.13
2022-09-03T04:46:03.245Z,3.10
2022-09-03T04:48:30.846Z,3.37
2022-09-03T04:51:11.224Z,3.10
2022-09-03T04:53:40.339Z,2.83
2022-09-03T04:56:21.313Z,2.83
2022-09-03T04:58:51.038Z,2.27
2022-09-03T05:01:20.627Z,2.30
2022-09-03T05:03:47.829Z,2.57
2022-09-03T05:06:17.335Z,2.20
2022-09-03T05:08:51.268Z,2.23
2022-09-03T05:11:18.323Z,2.67
2022-09-03T05:13:49.141Z,3.53
2022-09-03T05:16:16.270Z,3.17
2022-09-03T05:18:43.450Z,2.70
2022-09-03T05:21:12.431Z,2.40
2022-09-03T05:23:41.107Z,2.33
2022-09-03T05:26:12.245Z,2.17
2022-09-03T05:28:40.878Z,2.10
2022-09-03T05:31:10.364Z,1.90
2022-09-03T05:33:42.472Z,2.00
2022-09-03T05:36:11.932Z,1.50
2022-09-03T05:38:38.867Z,1.90
2022-09-03T05:41:07.754Z,2.90
2022-09-03T05:43:34.729Z,2.80
2022-09-03T05:46:06.981Z,2.70
2022-09-03T05:48:35.866Z,2.80
2022-09-03T05:51:04.830Z,2.23
2022-09-03T05:53:34.434Z,2.77
2022-09-03T05:56:07.369Z,3.03
2022-09-03T05:58:35.830Z,3.60
2022-09-03T06:01:16.738Z,3.03
2022-09-03T06:03:44.805Z,2.83
2022-09-03T06:06:13.887Z,3.20
2022-09-03T06:08:42.223Z,2.60
2022-09-03T06:11:09.499Z,2.73
2022-09-03T06:13:36.472Z,2.83
2022-09-03T06:16:05.410Z,2.93
2022-09-03T06:18:32.529Z,3.13
2022-09-03T06:21:01.350Z,3.13
2022-09-03T06:23:29.699Z,4.70
2022-09-03T06:26:07.546Z,4.37
2022-09-03T06:28:36.366Z,3.30
2022-09-03T06:31:04.877Z,3.70
2022-09-03T06:33:32.924Z,3.10
2022-09-03T06:36:03.697Z,3.17
2022-09-03T06:38:32.678Z,2.90
2022-09-03T06:41:04.539Z,3.10
2022-09-03T06:43:34.366Z,3.37
2022-09-03T06:46:03.854Z,3.27
2022-09-03T06:48:32.366Z,16.97
2022-09-03T06:51:01.499Z,3.70
2022-09-03T06:53:31.995Z,3.57
2022-09-03T06:56:17.083Z,4.30
2022-09-03T06:58:49.048Z,3.27
2022-09-03T07:01:19.387Z,2.93
2022-09-03T07:03:48.478Z,3.17
2022-09-03T07:06:19.407Z,2.10
2022-09-03T07:08:46.937Z,2.50
2022-09-03T07:11:16.571Z,2.80
2022-09-03T07:13:45.277Z,3.23
2022-09-03T07:16:17.889Z,2.23
2022-09-03T07:18:45.252Z,3.10
2022-09-03T07:21:14.679Z,2.70
2022-09-03T07:23:41.748Z,2.47
2022-09-03T07:26:12.780Z,2.80
2022-09-03T07:28:41.372Z,1.90
2022-09-03T07:31:11.953Z,2.57
2022-09-03T07:33:39.882Z,3.50
2022-09-03T07:36:10.205Z,2.00
2022-09-03T07:38:37.448Z,2.77
2022-09-03T07:41:06.680Z,3.60
2022-09-03T07:43:47.259Z,2.50
2022-09-03T07:46:23.008Z,2.90
2022-09-03T07:48:52.140Z,3.37
2022-09-03T07:51:26.937Z,3.80
2022-09-03T07:54:02.249Z,2.97
2022-09-03T07:56:32.689Z,2.73
2022-09-03T07:58:59.650Z,3.27
2022-09-03T08:01:28.990Z,2.77
2022-09-03T08:03:56.200Z,2.90
2022-09-03T08:06:26.249Z,2.97
2022-09-03T08:09:05.729Z,2.37
2022-09-03T08:11:36.910Z,2.67
2022-09-03T08:14:06.887Z,3.50
2022-09-03T08:16:36.801Z,2.90
2022-09-03T08:19:04.315Z,3.43
2022-09-03T08:21:31.738Z,2.43
2022-09-03T08:24:04.770Z,2.83
2022-09-03T08:26:34.176Z,2.70
2022-09-03T08:29:01.140Z,2.63
2022-09-03T08:31:29.376Z,3.00
2022-09-03T08:33:57.759Z,3.10
2022-09-03T08:36:27.089Z,3.43
2022-09-03T08:38:57.577Z,3.47
2022-09-03T08:41:31.823Z,3.30
2022-09-03T08:44:11.050Z,2.60
2022-09-03T08:46:52.202Z,2.63
2022-09-03T08:49:27.096Z,2.40
2022-09-03T08:51:55.519Z,2.40
2022-09-03T08:54:24.838Z,2.53
2022-09-03T08:56:52.868Z,2.43
2022-09-03T08:59:22.259Z,2.47
2022-09-03T09:02:04.685Z,1.97
2022-09-03T09:04:56.509Z,2.73
2022-09-03T09:08:05.671Z,1.93
2022-09-03T09:10:45.647Z,2.17
2022-09-03T09:13:23.024Z,2.33
2022-09-03T09:16:28.029Z,2.53
2022-09-03T09:19:22.849Z,2.07
2022-09-03T09:21:53.870Z,2.23
2022-09-03T09:24:26.631Z,1.73
2022-09-03T09:26:58.937Z,1.70
2022-09-03T09:29:28.738Z,1.47
2022-09-03T09:31:55.682Z,2.10
2022-09-03T09:34:22.699Z,1.67
2022-09-03T09:36:52.578Z,1.63
2022-09-03T09:39:19.997Z,2.07
2022-09-03T09:42:05.760Z,2.40
2022-09-03T09:44:32.660Z,1.80
2022-09-03T09:47:15.411Z,2.47
2022-09-03T09:50:00.385Z,3.03
2022-09-03T09:52:30.447Z,2.40
2022-09-03T09:55:19.235Z,2.83
2022-09-03T09:57:46.649Z,2.20
2022-09-03T10:00:16.800Z,2.93
2022-09-03T10:02:56.976Z,2.27
2022-09-03T10:05:30.903Z,2.80
2022-09-03T10:08:02.609Z,2.53
2022-09-03T10:10:35.301Z,1.97
2022-09-03T10:13:09.567Z,2.50
2022-09-03T10:15:58.932Z,1.77
2022-09-03T10:18:38.139Z,2.20
2022-09-03T10:21:33.059Z,2.30
2022-09-03T10:24:16.150Z,2.33
2022-09-03T10:26:46.125Z,2.00
2022-09-03T10:29:19.171Z,1.70
2022-09-03T10:31:55.333Z,1.50
2022-09-03T10:34:39.063Z,1.97
2022-09-03T10:37:27.565Z,2.00
2022-09-03T10:40:13.227Z,1.40
2022-09-03T10:42:45.991Z,2.10
2022-09-03T10:46:01.574Z,1.63
2022-09-03T10:48:40.379Z,2.40
2022-09-03T10:51:17.868Z,1.50
2022-09-03T10:53:56.589Z,1.87
2022-09-03T10:56:35.539Z,2.10
2022-09-03T10:59:22.173Z,1.93
2022-09-03T11:02:21.997Z,2.53
2022-09-03T11:05:10.389Z,1.97
2022-09-03T11:07:41.957Z,1.90
2022-09-03T11:10:34.590Z,2.27
2022-09-03T11:13:39.188Z,2.03
2022-09-03T11:16:16.135Z,1.87
2022-09-03T11:18:55.999Z,1.90
2022-09-03T11:21:25.781Z,1.90
2022-09-03T11:24:13.938Z,1.60
2022-09-03T11:26:55.227Z,2.17
2022-09-03T11:29:37.321Z,1.90
2022-09-03T11:32:24.728Z,1.70
2022-09-03T11:34:54.672Z,2.03
2022-09-03T11:37:30.340Z,2.20
2022-09-03T11:40:18.178Z,1.60
2022-09-03T11:42:45.957Z,2.07
2022-09-03T11:45:35.167Z,1.87
2022-09-03T11:48:02.229Z,1.80
2022-09-03T11:50:32.601Z,2.00
2022-09-03T11:53:30.326Z,1.47
2022-09-03T11:56:17.997Z,2.00
2022-09-03T11:58:46.440Z,1.93
2022-09-03T12:01:16.377Z,1.67
2022-09-03T12:03:47.836Z,1.50
2022-09-03T12:06:22.184Z,1.60
2022-09-03T12:08:53.226Z,1.63
2022-09-03T12:11:36.053Z,2.27
2022-09-03T12:14:27.848Z,1.80
2022-09-03T12:17:22.745Z,1.60
2022-09-03T12:19:57.998Z,1.70
2022-09-03T12:22:31.549Z,1.73
2022-09-03T12:25:12.774Z,2.20
2022-09-03T12:27:47.367Z,1.30
2022-09-03T12:30:18.683Z,1.70
2022-09-03T12:32:47.831Z,1.27
2022-09-03T12:38:05.350Z,1.23
2022-09-03T12:40:34.311Z,1.60
2022-09-03T12:46:13.930Z,2.13
2022-09-03T12:51:54.393Z,1.57
2022-09-03T12:54:23.215Z,1.50
2022-09-03T12:56:57.435Z,1.60
2022-09-03T12:59:27.757Z,1.50
2022-09-03T13:01:58.396Z,1.90
2022-09-03T13:04:32.627Z,1.70
2022-09-03T13:07:06.778Z,1.50
2022-09-03T13:09:36.257Z,1.13
2022-09-03T13:12:06.051Z,1.20
2022-09-03T13:14:47.749Z,1.60
2022-09-03T13:17:23.741Z,1.50
2022-09-03T13:19:59.089Z,1.70
2022-09-03T13:22:33.727Z,1.27
2022-09-03T13:25:26.508Z,1.77
2022-09-03T13:28:35.955Z,1.67
2022-09-03T13:31:05.949Z,1.30
2022-09-03T13:33:48.192Z,1.90
2022-09-03T13:36:19.727Z,1.40
2022-09-03T13:38:59.228Z,1.67
2022-09-03T13:42:00.526Z,1.43
2022-09-03T13:44:50.601Z,1.40
2022-09-03T13:47:30.377Z,1.80
2022-09-03T13:50:22.898Z,1.60
2022-09-03T13:52:56.964Z,2.00
2022-09-03T13:55:47.568Z,1.43
2022-09-03T13:58:36.401Z,1.70
2022-09-03T14:01:20.584Z,1.87
2022-09-03T14:03:57.727Z,1.80
2022-09-03T14:06:42.905Z,1.33
2022-09-03T14:09:16.357Z,1.50
2022-09-03T14:12:06.609Z,1.33
2022-09-03T14:14:43.149Z,1.50
2022-09-03T14:17:19.441Z,1.40
2022-09-03T14:20:00.588Z,1.87
2022-09-03T14:22:31.754Z,1.57
2022-09-03T14:25:03.651Z,1.60
2022-09-03T14:27:32.352Z,1.70
2022-09-03T14:30:09.623Z,1.63
2022-09-03T14:32:42.632Z,1.90
2022-09-03T14:35:15.654Z,1.67
2022-09-03T14:38:34.745Z,1.80
2022-09-03T14:41:01.527Z,1.40
2022-09-03T14:43:46.979Z,2.00
2022-09-03T14:46:18.607Z,1.13
2022-09-03T14:49:12.230Z,1.30
2022-09-03T14:52:00.769Z,1.80
2022-09-03T14:54:34.848Z,1.53
2022-09-03T14:57:40.367Z,1.57
2022-09-03T15:00:21.767Z,1.73
2022-09-03T15:03:03.960Z,1.70
2022-09-03T15:06:06.090Z,1.57
2022-09-03T15:08:58.850Z,1.80
2022-09-03T15:11:31.118Z,2.07
2022-09-03T15:14:09.817Z,1.60
2022-09-03T15:16:58.345Z,1.50
2022-09-03T15:19:48.834Z,1.77
2022-09-03T15:22:38.531Z,2.00
2022-09-03T15:25:32.159Z,1.90
2022-09-03T15:28:07.999Z,1.23
2022-09-03T15:30:41.912Z,1.63
2022-09-03T15:33:16.595Z,1.50
2022-09-03T15:36:27.530Z,2.17
2022-09-03T15:39:10.098Z,1.93
2022-09-03T15:41:51.725Z,1.43
2022-09-03T15:44:20.141Z,1.60
2022-09-03T15:46:54.560Z,1.80
2022-09-03T15:49:25.051Z,1.30
2022-09-03T15:52:12.720Z,2.10
2022-09-03T15:54:47.070Z,2.30
2022-09-03T15:57:25.352Z,2.00
2022-09-03T16:00:01.417Z,1.77
2022-09-03T16:02:49.420Z,2.17
2022-09-03T16:05:39.488Z,1.80
2022-09-03T16:08:28.033Z,1.93
2022-09-03T16:11:26.949Z,1.60
2022-09-03T16:14:14.623Z,1.80
2022-09-03T16:17:00.125Z,2.10
2022-09-03T16:19:36.378Z,2.50
2022-09-03T16:22:30.516Z,2.40
2022-09-03T16:25:04.228Z,1.77
2022-09-03T16:27:52.319Z,2.90
2022-09-03T16:30:28.703Z,2.30
2022-09-03T16:33:42.481Z,2.37
2022-09-03T16:36:12.230Z,2.17
2022-09-03T16:38:54.946Z,1.90
2022-09-03T16:41:43.550Z,2.20
2022-09-03T16:44:41.442Z,3.00
2022-09-03T16:47:13.821Z,2.50
2022-09-03T16:49:52.242Z,2.83
2022-09-03T16:52:54.398Z,2.40
2022-09-03T16:55:58.723Z,2.60
2022-09-03T16:58:53.483Z,2.70
2022-09-03T17:01:26.741Z,2.47
2022-09-03T17:04:05.991Z,2.90
2022-09-03T17:06:54.570Z,2.53
2022-09-03T17:09:39.998Z,2.30
2022-09-03T17:12:25.468Z,2.20
2022-09-03T17:15:10.416Z,2.17
2022-09-03T17:18:12.662Z,2.67
2022-09-03T17:20:52.768Z,2.30
2022-09-03T17:23:41.307Z,2.60
2022-09-03T17:26:16.837Z,2.67
2022-09-03T17:29:18.718Z,3.30
2022-09-03T17:31:52.712Z,3.57
2022-09-03T17:34:39.919Z,4.13
2022-09-03T17:37:21.870Z,4.30
2022-09-03T17:40:29.338Z,3.00
2022-09-03T17:43:04.862Z,2.67
2022-09-03T17:45:41.727Z,2.57
2022-09-03T17:48:23.668Z,3.40
2022-09-03T17:50:55.842Z,3.80
2022-09-03T17:53:27.090Z,3.87
2022-09-03T17:56:00.998Z,3.07
2022-09-03T17:58:36.719Z,3.07
2022-09-03T18:01:13.669Z,3.63
2022-09-03T18:04:18.557Z,3.40
2022-09-03T18:06:55.706Z,3.30
2022-09-03T18:09:26.233Z,2.77
2022-09-03T18:12:14.110Z,3.20
2022-09-03T18:14:49.789Z,3.33
2022-09-03T18:17:34.222Z,2.67
2022-09-03T18:20:23.990Z,3.10
2022-09-03T18:23:22.935Z,3.13
2022-09-03T18:26:34.310Z,3.20
2022-09-03T18:29:39.782Z,2.90
2022-09-03T18:32:25.300Z,2.87
2022-09-03T18:35:10.442Z,2.63
2022-09-03T18:37:56.947Z,2.90
2022-09-03T18:40:47.228Z,2.90
2022-09-03T18:43:35.357Z,3.47
2022-09-03T18:49:53.910Z,2.90
2022-09-03T18:52:49.362Z,3.10
2022-09-03T18:55:40.861Z,3.00
2022-09-03T18:58:48.563Z,4.00
2022-09-03T19:01:55.070Z,3.70
2022-09-03T19:05:05.630Z,3.63
2022-09-03T19:08:14.407Z,3.27
2022-09-03T19:11:09.538Z,3.03
2022-09-03T19:13:56.780Z,3.37
2022-09-03T19:16:57.429Z,3.40
2022-09-03T19:20:13.736Z,3.40
2022-09-03T19:23:00.519Z,2.30
2022-09-03T19:25:47.821Z,2.50
2022-09-03T19:28:53.314Z,1.50
2022-09-03T19:32:02.042Z,2.50
2022-09-03T19:35:06.131Z,1.67
2022-09-03T19:38:05.374Z,1.30
2022-09-03T19:41:04.206Z,1.33
2022-09-03T19:44:08.012Z,1.23
2022-09-03T19:47:08.231Z,1.37
2022-09-03T19:50:08.801Z,1.40
2022-09-03T19:53:12.227Z,0.93
2022-09-03T19:56:19.830Z,0.57
2022-09-03T19:59:10.667Z,0.80
2022-09-03T20:01:56.933Z,1.00
2022-09-03T20:04:51.940Z,0.87
2022-09-03T20:07:38.094Z,0.70
2022-09-03T20:10:25.226Z,0.67
2022-09-03T20:13:09.602Z,0.97
2022-09-03T20:15:54.562Z,0.50
2022-09-03T20:18:33.487Z,1.00
2022-09-03T20:21:20.412Z,0.50
2022-09-03T20:24:05.318Z,0.50
2022-09-03T20:26:31.942Z,0.50
2022-09-03T20:29:19.468Z,0.40
2022-09-03T20:31:48.922Z,0.40
2022-09-03T20:34:32.147Z,0.53
2022-09-03T20:37:25.293Z,0.50
2022-09-03T20:40:06.831Z,0.60
2022-09-03T20:42:33.499Z,0.77
2022-09-03T20:45:17.539Z,0.70
2022-09-03T20:48:01.178Z,0.60
2022-09-03T20:50:41.216Z,0.77
2022-09-03T20:53:32.030Z,1.00
2022-09-03T20:56:14.802Z,0.70
2022-09-03T20:59:12.509Z,0.70
2022-09-03T21:02:21.123Z,0.40
2022-09-03T21:05:06.424Z,0.90
2022-09-03T21:08:11.386Z,0.40
2022-09-03T21:10:54.714Z,0.90
2022-09-03T21:13:38.706Z,0.90
2022-09-03T21:16:42.570Z,0.70
2022-09-03T21:19:17.121Z,0.70
2022-09-03T21:22:00.040Z,0.90
2022-09-03T21:24:37.177Z,0.83
2022-09-03T21:27:07.545Z,0.70
2022-09-03T21:30:06.165Z,1.33
2022-09-03T21:32:53.060Z,0.73
2022-09-03T21:35:27.979Z,0.50
2022-09-03T21:38:27.020Z,0.57
2022-09-03T21:41:25.896Z,1.23
2022-09-03T21:44:04.722Z,0.73
2022-09-03T21:46:36.753Z,0.70
2022-09-03T21:49:07.839Z,0.83
2022-09-03T21:52:02.298Z,0.90
2022-09-03T21:54:31.261Z,0.90
2022-09-03T21:57:36.687Z,1.53
2022-09-03T22:00:18.974Z,1.30
2022-09-03T22:02:47.180Z,1.07
2022-09-03T22:05:15.827Z,0.80
2022-09-03T22:08:19.669Z,0.70
2022-09-03T22:10:54.004Z,1.20
2022-09-03T22:13:27.397Z,1.00
2022-09-03T22:15:58.290Z,1.00
2022-09-03T22:18:31.189Z,0.70
2022-09-03T22:21:16.406Z,0.60
2022-09-03T22:23:57.313Z,0.80
2022-09-03T22:27:15.661Z,0.80
2022-09-03T22:30:03.233Z,1.00
2022-09-03T22:33:10.969Z,0.60
2022-09-03T22:35:54.554Z,0.60
2022-09-03T22:38:33.462Z,0.97
2022-09-03T22:41:35.333Z,0.70
2022-09-03T22:44:40.673Z,0.70
2022-09-03T22:47:11.442Z,0.73
2022-09-03T22:49:47.036Z,0.80
2022-09-03T22:52:16.665Z,0.93
2022-09-03T22:54:43.269Z,0.93
2022-09-03T22:57:11.061Z,1.67
2022-09-03T22:59:41.792Z,1.10
2022-09-03T23:02:21.916Z,1.20
2022-09-03T23:05:00.891Z,0.90
2022-09-03T23:07:47.551Z,0.67
2022-09-03T23:10:25.665Z,1.60
2022-09-03T23:13:16.450Z,0.43
2022-09-03T23:15:43.960Z,1.33
2022-09-03T23:18:19.899Z,1.07
2022-09-03T23:21:04.162Z,0.63
2022-09-03T23:23:35.195Z,0.90
2022-09-03T23:26:27.302Z,0.50
2022-09-03T23:29:19.100Z,0.50
2022-09-03T23:31:45.923Z,1.07
2022-09-03T23:34:12.932Z,1.07
2022-09-03T23:37:32.914Z,0.60
2022-09-03T23:40:22.331Z,0.63
2022-09-03T23:43:02.043Z,1.23
2022-09-03T23:45:40.879Z,0.63
2022-09-03T23:48:39.710Z,0.83
2022-09-03T23:51:16.331Z,0.67
2022-09-03T23:53:50.102Z,0.90
2022-09-03T23:56:40.504Z,0.60
2022-09-03T23:59:35.282Z,0.80
